Airfield :
LOGIN :

Register | Disclaimer

   EN    FR    IT 

 










Legend :    VFR   Marginal VFR   IFR   Intensive IFR   Very Intensive IFR
Visi :
Ceiling :
>= 8 km
>= 3000ft
5 to 8 km
1000 to 3000 ft
1500m to 5 km
500 to 1000 ft
800 to 1500m
200 to 500 ft
< 800m
< 200 ft
Symbols :   Thunderstorms  Fog  Heavy snow  Heavy precipitations  Wind > 20 kt
SIGMETs :     Misc.  Thunderstorms  Icing  Turbulence  Mountain Waves  Volcanic Ashes






- Airport Elevation : 1504 ft
- IATA code : PNA


LEPP - Noain Pamplona

CURRENT METAR :
  • 250000Z AUTO 32009KT 290V350 9999 BKN017 19/16 Q1019

EXPIRED METARs :
  • 242330Z AUTO 32010KT 9999 FEW016 19/16 Q1019
  • 242300Z AUTO 33014KT CAVOK 19/17 Q1019
  • 242230Z AUTO 33013KT CAVOK 19/16 Q1019
  • 242200Z 32011KT 9999 FEW020 19/17 Q1019
  • 242130Z 32012KT 9999 FEW020 20/16 Q1019
  • 242100Z 32011KT 9999 FEW020 20/17 Q1019
  • 242030Z 31010KT 9999 FEW020 20/17 Q1019
  • 242000Z 32011KT 9999 FEW020 20/17 Q1018
  • 241930Z 31011KT 9999 FEW022 21/17 Q1018

TAF TAF LEPP
Valid from the 24 at 21:00 until the 25 at 21:00 UTC


242000Z 2421/2521 34009KT 9999 FEW010 SCT020 TX29/2514Z TN18/2506Z
PROB40
TEMPO 2422/2507 BKN010
PROB40
TEMPO 2515/2519 34015G25KT



MET'MAP, your aeronautical weather chart ! - Copyright ORBIFLY December 2007 - Disclaimer

ORBIFLY MET'MAP TEAM :

Programming & Development : Alexandra Zaïnal
Original concept : Baudouin d'Aumeries
Technical & hardware support : Manuel Goepfert
Assistance : Marc-Olivier Méhu




SOURCES & CREDITS :

   NOAA